SAS373 ENVA-ENGM
Flight info
| Callsign | SAS373 |
|---|---|
| Flight time | 0h 38m |
| Altitude | 35000 |
| Route | UTUNA DCT TUTBI DCT BELGU |
| Aircraft | A20N/M-SDE2E3FGHIRWXY/LB1 |
Departure
| Time | 2026-05-05 15:14 |
|---|---|
| Airport | Trondheim Airport, Værnes (ENVA) |
Arrival
| Time | 2026-05-05 15:52 |
|---|---|
| Airport | Oslo-Gardermoen International Airport (ENGM) |
| Time | Latitude | Longitude | Altitude | Speed | Heading |
|---|---|---|---|---|---|
| 2026-05-05 15:00 | 63.45497 | 10.91825 | 38 ft | 0 kts | 180° |
| 2026-05-05 15:08 | 63.45520 | 10.91825 | 37 ft | 4 kts | 180° |
| 2026-05-05 15:09 | 63.45546 | 10.91826 | 38 ft | 4 kts | 180° |
| 2026-05-05 15:09 | 63.45548 | 10.91826 | 38 ft | 0 kts | 180° |
| 2026-05-05 15:11 | 63.45533 | 10.91857 | 35 ft | 12 kts | 130° |
| 2026-05-05 15:11 | 63.45538 | 10.91944 | 37 ft | 15 kts | 59° |
| 2026-05-05 15:11 | 63.45589 | 10.92255 | 40 ft | 26 kts | 81° |
| 2026-05-05 15:12 | 63.45593 | 10.92715 | 44 ft | 31 kts | 90° |
| 2026-05-05 15:12 | 63.45594 | 10.93225 | 52 ft | 35 kts | 89° |
| 2026-05-05 15:12 | 63.45600 | 10.93784 | 55 ft | 34 kts | 76° |
| 2026-05-05 15:12 | 63.45703 | 10.94071 | 51 ft | 33 kts | 44° |
| 2026-05-05 15:13 | 63.45746 | 10.94103 | 60 ft | 4 kts | 333° |
| 2026-05-05 15:13 | 63.45754 | 10.94060 | 57 ft | 0 kts | 266° |
| 2026-05-05 15:13 | 63.45752 | 10.94007 | 59 ft | 9 kts | 266° |
| 2026-05-05 15:13 | 63.45764 | 10.92984 | 50 ft | 107 kts | 270° |
| 2026-05-05 15:14 | 63.45756 | 10.91020 | 639 ft | 127 kts | 273° |
| 2026-05-05 15:14 | 63.45779 | 10.89067 | 1683 ft | 138 kts | 272° |
| 2026-05-05 15:14 | 63.45814 | 10.86725 | 2800 ft | 150 kts | 273° |
| 2026-05-05 15:14 | 63.45848 | 10.84215 | 3592 ft | 170 kts | 272° |
| 2026-05-05 15:15 | 63.45879 | 10.81388 | 4424 ft | 194 kts | 272° |
| 2026-05-05 15:15 | 63.45816 | 10.78191 | 5431 ft | 219 kts | 259° |
| 2026-05-05 15:15 | 63.45131 | 10.74904 | 6575 ft | 245 kts | 233° |
| 2026-05-05 15:15 | 63.43712 | 10.72604 | 7903 ft | 263 kts | 205° |
| 2026-05-05 15:16 | 63.41801 | 10.71857 | 9471 ft | 276 kts | 186° |
| 2026-05-05 15:16 | 63.39843 | 10.71939 | 10714 ft | 291 kts | 181° |
| 2026-05-05 15:16 | 63.37665 | 10.72172 | 11568 ft | 317 kts | 181° |
| 2026-05-05 15:16 | 63.36060 | 10.72287 | 12133 ft | 332 kts | 182° |
| 2026-05-05 15:17 | 63.33651 | 10.72343 | 13350 ft | 340 kts | 183° |
| 2026-05-05 15:17 | 63.31288 | 10.72310 | 14551 ft | 345 kts | 184° |
| 2026-05-05 15:17 | 63.28899 | 10.72231 | 15704 ft | 351 kts | 184° |
| 2026-05-05 15:17 | 63.26370 | 10.72127 | 16919 ft | 356 kts | 184° |
| 2026-05-05 15:18 | 63.23875 | 10.72020 | 18063 ft | 362 kts | 184° |
| 2026-05-05 15:18 | 63.21332 | 10.71911 | 19048 ft | 368 kts | 184° |
| 2026-05-05 15:18 | 63.18750 | 10.71801 | 20018 ft | 374 kts | 184° |
| 2026-05-05 15:18 | 63.16129 | 10.71692 | 20979 ft | 380 kts | 184° |
| 2026-05-05 15:19 | 63.13464 | 10.71581 | 21920 ft | 386 kts | 184° |
| 2026-05-05 15:19 | 63.10759 | 10.71470 | 22873 ft | 391 kts | 184° |
| 2026-05-05 15:19 | 63.08011 | 10.71358 | 23712 ft | 398 kts | 184° |
| 2026-05-05 15:19 | 63.05230 | 10.71245 | 24471 ft | 403 kts | 184° |
| 2026-05-05 15:20 | 63.02410 | 10.71134 | 25181 ft | 409 kts | 184° |
| 2026-05-05 15:20 | 62.99548 | 10.71020 | 25892 ft | 414 kts | 184° |
| 2026-05-05 15:20 | 62.96647 | 10.70904 | 26581 ft | 420 kts | 184° |
| 2026-05-05 15:20 | 62.93704 | 10.70787 | 27235 ft | 425 kts | 184° |
| 2026-05-05 15:21 | 62.90729 | 10.70669 | 27884 ft | 431 kts | 184° |
| 2026-05-05 15:21 | 62.87715 | 10.70550 | 28509 ft | 436 kts | 185° |
| 2026-05-05 15:21 | 62.84661 | 10.70430 | 29111 ft | 441 kts | 185° |
| 2026-05-05 15:21 | 62.81578 | 10.70299 | 29691 ft | 446 kts | 185° |
| 2026-05-05 15:22 | 62.78457 | 10.70098 | 30198 ft | 451 kts | 186° |
| 2026-05-05 15:22 | 62.75309 | 10.69865 | 30689 ft | 455 kts | 186° |
| 2026-05-05 15:22 | 62.72127 | 10.69629 | 31196 ft | 459 kts | 186° |
| 2026-05-05 15:22 | 62.68936 | 10.69400 | 31795 ft | 459 kts | 186° |
| 2026-05-05 15:23 | 62.65736 | 10.69178 | 32419 ft | 460 kts | 186° |
| 2026-05-05 15:23 | 62.62583 | 10.68961 | 33024 ft | 460 kts | 186° |
| 2026-05-05 15:23 | 62.59338 | 10.68740 | 33645 ft | 460 kts | 186° |
| 2026-05-05 15:23 | 62.56051 | 10.68517 | 34194 ft | 460 kts | 186° |
| 2026-05-05 15:24 | 62.52808 | 10.68296 | 34638 ft | 459 kts | 186° |
| 2026-05-05 15:24 | 62.49620 | 10.68081 | 34825 ft | 458 kts | 186° |
| 2026-05-05 15:24 | 62.46440 | 10.67865 | 34859 ft | 457 kts | 186° |
| 2026-05-05 15:25 | 62.40083 | 10.67436 | 34864 ft | 457 kts | 186° |
| 2026-05-05 15:25 | 62.33725 | 10.67008 | 34861 ft | 457 kts | 186° |
| 2026-05-05 15:26 | 62.27382 | 10.66584 | 34861 ft | 457 kts | 187° |
| 2026-05-05 15:26 | 62.21026 | 10.66160 | 34858 ft | 456 kts | 187° |
| 2026-05-05 15:27 | 62.14753 | 10.65743 | 34858 ft | 457 kts | 187° |
| 2026-05-05 15:27 | 62.08416 | 10.65325 | 34861 ft | 457 kts | 187° |
| 2026-05-05 15:28 | 62.02070 | 10.64907 | 34861 ft | 457 kts | 187° |
| 2026-05-05 15:28 | 61.95724 | 10.64491 | 34863 ft | 456 kts | 187° |
| 2026-05-05 15:29 | 61.89337 | 10.64075 | 34854 ft | 455 kts | 187° |
| 2026-05-05 15:29 | 61.83028 | 10.63665 | 34852 ft | 454 kts | 187° |
| 2026-05-05 15:30 | 61.76669 | 10.63253 | 34849 ft | 454 kts | 187° |
| 2026-05-05 15:30 | 61.70379 | 10.62848 | 34848 ft | 453 kts | 187° |
| 2026-05-05 15:31 | 61.64039 | 10.62439 | 34845 ft | 453 kts | 187° |
| 2026-05-05 15:31 | 61.57739 | 10.62035 | 34843 ft | 453 kts | 187° |
| 2026-05-05 15:32 | 61.51401 | 10.61632 | 34844 ft | 453 kts | 188° |
| 2026-05-05 15:32 | 61.45102 | 10.61232 | 34845 ft | 453 kts | 188° |
| 2026-05-05 15:33 | 61.38812 | 10.60834 | 34836 ft | 452 kts | 188° |
| 2026-05-05 15:33 | 61.35649 | 10.60637 | 34498 ft | 450 kts | 188° |
| 2026-05-05 15:33 | 61.32516 | 10.60441 | 33737 ft | 452 kts | 188° |
| 2026-05-05 15:33 | 61.29524 | 10.60251 | 32632 ft | 456 kts | 188° |
| 2026-05-05 15:34 | 61.26397 | 10.60056 | 31755 ft | 455 kts | 189° |
| 2026-05-05 15:34 | 61.24783 | 10.59961 | 31592 ft | 447 kts | 189° |
| 2026-05-05 15:34 | 61.21877 | 10.59761 | 31379 ft | 428 kts | 192° |
| 2026-05-05 15:34 | 61.18943 | 10.58988 | 30846 ft | 413 kts | 199° |
| 2026-05-05 15:35 | 61.16145 | 10.57888 | 30311 ft | 405 kts | 200° |
| 2026-05-05 15:35 | 61.13398 | 10.56803 | 30161 ft | 388 kts | 200° |
| 2026-05-05 15:35 | 61.10778 | 10.55779 | 29752 ft | 379 kts | 200° |
| 2026-05-05 15:35 | 61.08199 | 10.54772 | 29117 ft | 375 kts | 200° |
| 2026-05-05 15:36 | 61.05649 | 10.53782 | 28510 ft | 371 kts | 200° |
| 2026-05-05 15:36 | 61.03133 | 10.52814 | 27847 ft | 368 kts | 200° |
| 2026-05-05 15:36 | 61.00588 | 10.51828 | 26779 ft | 375 kts | 200° |
| 2026-05-05 15:36 | 60.97991 | 10.50818 | 25547 ft | 385 kts | 200° |
| 2026-05-05 15:37 | 60.95313 | 10.49781 | 24222 ft | 397 kts | 199° |
| 2026-05-05 15:37 | 60.92519 | 10.48706 | 22638 ft | 409 kts | 198° |
| 2026-05-05 15:37 | 60.89676 | 10.47612 | 20628 ft | 424 kts | 197° |
| 2026-05-05 15:37 | 60.86695 | 10.46470 | 19057 ft | 431 kts | 195° |
| 2026-05-05 15:38 | 60.83714 | 10.45358 | 17821 ft | 428 kts | 194° |
| 2026-05-05 15:38 | 60.80767 | 10.44797 | 16688 ft | 427 kts | 182° |
| 2026-05-05 15:38 | 60.77881 | 10.45591 | 16296 ft | 408 kts | 173° |
| 2026-05-05 15:38 | 60.75200 | 10.46756 | 16239 ft | 381 kts | 171° |
| 2026-05-05 15:39 | 60.72671 | 10.47883 | 16235 ft | 371 kts | 172° |
| 2026-05-05 15:39 | 60.70097 | 10.48939 | 16237 ft | 372 kts | 173° |
| 2026-05-05 15:39 | 60.67483 | 10.49936 | 16241 ft | 372 kts | 174° |
| 2026-05-05 15:39 | 60.64945 | 10.50860 | 16196 ft | 370 kts | 174° |
| 2026-05-05 15:40 | 60.62410 | 10.51764 | 15715 ft | 370 kts | 174° |
| 2026-05-05 15:40 | 60.59864 | 10.52657 | 14849 ft | 374 kts | 174° |
| 2026-05-05 15:40 | 60.57273 | 10.53558 | 13621 ft | 381 kts | 173° |
| 2026-05-05 15:40 | 60.54629 | 10.54480 | 12128 ft | 389 kts | 173° |
| 2026-05-05 15:41 | 60.51922 | 10.55434 | 11017 ft | 388 kts | 173° |
| 2026-05-05 15:41 | 60.49305 | 10.56362 | 10431 ft | 373 kts | 172° |
| 2026-05-05 15:41 | 60.46848 | 10.57230 | 10113 ft | 355 kts | 173° |
| 2026-05-05 15:41 | 60.44526 | 10.58051 | 9932 ft | 336 kts | 173° |
| 2026-05-05 15:42 | 60.42288 | 10.58836 | 9753 ft | 318 kts | 173° |
| 2026-05-05 15:42 | 60.40192 | 10.59573 | 9604 ft | 302 kts | 173° |
| 2026-05-05 15:42 | 60.38162 | 10.60282 | 9273 ft | 293 kts | 173° |
| 2026-05-05 15:42 | 60.36130 | 10.60982 | 8836 ft | 291 kts | 173° |
| 2026-05-05 15:43 | 60.34138 | 10.61670 | 8371 ft | 290 kts | 173° |
| 2026-05-05 15:43 | 60.32156 | 10.62359 | 7894 ft | 288 kts | 173° |
| 2026-05-05 15:43 | 60.30093 | 10.63074 | 7345 ft | 288 kts | 173° |
| 2026-05-05 15:43 | 60.28107 | 10.63763 | 6904 ft | 286 kts | 173° |
| 2026-05-05 15:44 | 60.26155 | 10.64442 | 6441 ft | 284 kts | 173° |
| 2026-05-05 15:44 | 60.24208 | 10.65114 | 5987 ft | 282 kts | 173° |
| 2026-05-05 15:44 | 60.22287 | 10.65782 | 5563 ft | 278 kts | 173° |
| 2026-05-05 15:44 | 60.20394 | 10.66441 | 5186 ft | 274 kts | 173° |
| 2026-05-05 15:45 | 60.18571 | 10.67065 | 4995 ft | 263 kts | 174° |
| 2026-05-05 15:45 | 60.16818 | 10.67664 | 4985 ft | 248 kts | 173° |
| 2026-05-05 15:45 | 60.15170 | 10.68229 | 4985 ft | 232 kts | 173° |
| 2026-05-05 15:45 | 60.13644 | 10.68759 | 4994 ft | 214 kts | 174° |
| 2026-05-05 15:46 | 60.12222 | 10.69250 | 4996 ft | 216 kts | 174° |
| 2026-05-05 15:46 | 60.10753 | 10.70137 | 4999 ft | 224 kts | 151° |
| 2026-05-05 15:46 | 60.09977 | 10.71536 | 4989 ft | 222 kts | 128° |
| 2026-05-05 15:46 | 60.09184 | 10.75121 | 4714 ft | 209 kts | 104° |
| 2026-05-05 15:47 | 60.08837 | 10.77908 | 4436 ft | 203 kts | 102° |
| 2026-05-05 15:47 | 60.08607 | 10.79742 | 4293 ft | 207 kts | 103° |
| 2026-05-05 15:47 | 60.08088 | 10.83366 | 4109 ft | 194 kts | 106° |
| 2026-05-05 15:47 | 60.07695 | 10.85823 | 3993 ft | 182 kts | 103° |
| 2026-05-05 15:48 | 60.07507 | 10.88320 | 3878 ft | 180 kts | 90° |
| 2026-05-05 15:48 | 60.07604 | 10.90818 | 3568 ft | 182 kts | 75° |
| 2026-05-05 15:48 | 60.08002 | 10.93311 | 3457 ft | 191 kts | 61° |
| 2026-05-05 15:48 | 60.08661 | 10.95552 | 3343 ft | 186 kts | 49° |
| 2026-05-05 15:49 | 60.09424 | 10.97662 | 3225 ft | 188 kts | 50° |
| 2026-05-05 15:49 | 60.10181 | 10.99794 | 3077 ft | 189 kts | 50° |
| 2026-05-05 15:49 | 60.11018 | 11.01769 | 2960 ft | 182 kts | 31° |
| 2026-05-05 15:49 | 60.12100 | 11.02758 | 2749 ft | 162 kts | 14° |
| 2026-05-05 15:50 | 60.13141 | 11.03518 | 2278 ft | 158 kts | 17° |
| 2026-05-05 15:50 | 60.14085 | 11.04532 | 1954 ft | 151 kts | 21° |
| 2026-05-05 15:50 | 60.15045 | 11.05400 | 1528 ft | 148 kts | 13° |
| 2026-05-05 15:50 | 60.16008 | 11.05974 | 1241 ft | 139 kts | 9° |
| 2026-05-05 15:51 | 60.16919 | 11.06482 | 1030 ft | 133 kts | 10° |
| 2026-05-05 15:51 | 60.17838 | 11.06987 | 854 ft | 140 kts | 10° |
| 2026-05-05 15:51 | 60.18445 | 11.07352 | 750 ft | 134 kts | 10° |
| 2026-05-05 15:51 | 60.19285 | 11.07850 | 676 ft | 119 kts | 10° |
| 2026-05-05 15:52 | 60.19879 | 11.08158 | 675 ft | 60 kts | 17° |
| 2026-05-05 15:52 | 60.20146 | 11.08352 | 673 ft | 37 kts | 19° |
| 2026-05-05 15:52 | 60.20244 | 11.08549 | 677 ft | 14 kts | 72° |
| 2026-05-05 15:52 | 60.20236 | 11.08686 | 676 ft | 1 kts | 110° |
| 2026-05-05 15:53 | 60.20226 | 11.08711 | 679 ft | 2 kts | 131° |
| 2026-05-05 15:53 | 60.20215 | 11.08730 | 678 ft | 4 kts | 138° |
| 2026-05-05 15:53 | 60.20186 | 11.08827 | 679 ft | 16 kts | 134° |
| 2026-05-05 15:53 | 60.20064 | 11.08838 | 680 ft | 22 kts | 195° |
| 2026-05-05 15:54 | 60.19901 | 11.08742 | 679 ft | 26 kts | 196° |
| 2026-05-05 15:54 | 60.19759 | 11.08820 | 677 ft | 14 kts | 105° |
| 2026-05-05 15:54 | 60.19757 | 11.08856 | 678 ft | 3 kts | 102° |
| 2026-05-05 15:54 | 60.19728 | 11.09052 | 683 ft | 21 kts | 110° |
| 2026-05-05 15:55 | 60.19688 | 11.09342 | 678 ft | 22 kts | 107° |
| 2026-05-05 15:55 | 60.19619 | 11.09535 | 679 ft | 14 kts | 182° |
| 2026-05-05 15:55 | 60.19560 | 11.09506 | 682 ft | 0 kts | 197° |
| 2026-05-05 15:55 | 60.19551 | 11.09500 | 684 ft | 0 kts | 197° |
| 2026-05-05 15:56 | 60.19551 | 11.09501 | 683 ft | 0 kts | 196° |